sensor_id;sensor_type;location;lat;lon;timestamp;P1;durP1;ratioP1;P2;durP2;ratioP2
46084;SDS011;31823;47.032;8.310;2023-12-20T00:01:03;16.35;;;8.35;;
46084;SDS011;31823;47.032;8.310;2023-12-20T00:03:29;18.60;;;8.80;;
46084;SDS011;31823;47.032;8.310;2023-12-20T00:05:55;12.57;;;7.43;;
46084;SDS011;31823;47.032;8.310;2023-12-20T00:08:20;17.38;;;8.60;;
46084;SDS011;31823;47.032;8.310;2023-12-20T00:10:46;20.05;;;8.98;;
46084;SDS011;31823;47.032;8.310;2023-12-20T00:13:12;16.27;;;8.50;;
46084;SDS011;31823;47.032;8.310;2023-12-20T00:15:37;17.40;;;8.05;;
46084;SDS011;31823;47.032;8.310;2023-12-20T00:18:03;15.20;;;8.10;;
46084;SDS011;31823;47.032;8.310;2023-12-20T00:20:29;17.95;;;9.57;;
46084;SDS011;31823;47.032;8.310;2023-12-20T00:22:57;14.57;;;7.82;;
46084;SDS011;31823;47.032;8.310;2023-12-20T00:25:23;16.45;;;8.88;;
46084;SDS011;31823;47.032;8.310;2023-12-20T00:27:49;15.65;;;7.95;;
46084;SDS011;31823;47.032;8.310;2023-12-20T00:30:15;16.05;;;8.55;;
46084;SDS011;31823;47.032;8.310;2023-12-20T00:32:41;16.58;;;7.93;;
46084;SDS011;31823;47.032;8.310;2023-12-20T00:35:11;14.43;;;8.82;;
46084;SDS011;31823;47.032;8.310;2023-12-20T00:37:41;16.42;;;8.45;;
46084;SDS011;31823;47.032;8.310;2023-12-20T00:40:07;15.05;;;8.45;;
46084;SDS011;31823;47.032;8.310;2023-12-20T00:42:34;16.02;;;8.82;;
46084;SDS011;31823;47.032;8.310;2023-12-20T00:45:02;16.10;;;8.98;;
46084;SDS011;31823;47.032;8.310;2023-12-20T00:47:29;20.73;;;9.90;;
46084;SDS011;31823;47.032;8.310;2023-12-20T00:49:56;15.73;;;9.07;;
46084;SDS011;31823;47.032;8.310;2023-12-20T00:52:22;17.63;;;9.23;;
46084;SDS011;31823;47.032;8.310;2023-12-20T00:54:47;18.20;;;10.00;;
46084;SDS011;31823;47.032;8.310;2023-12-20T00:57:13;18.90;;;9.38;;
46084;SDS011;31823;47.032;8.310;2023-12-20T00:59:39;17.20;;;8.82;;
46084;SDS011;31823;47.032;8.310;2023-12-20T01:02:05;15.95;;;8.43;;
46084;SDS011;31823;47.032;8.310;2023-12-20T01:04:30;16.58;;;9.25;;
46084;SDS011;31823;47.032;8.310;2023-12-20T01:06:56;16.15;;;8.73;;
46084;SDS011;31823;47.032;8.310;2023-12-20T01:09:21;14.95;;;8.38;;
46084;SDS011;31823;47.032;8.310;2023-12-20T01:11:51;16.00;;;7.95;;
46084;SDS011;31823;47.032;8.310;2023-12-20T01:14:17;15.55;;;7.78;;
46084;SDS011;31823;47.032;8.310;2023-12-20T01:16:43;14.88;;;7.80;;
46084;SDS011;31823;47.032;8.310;2023-12-20T01:19:09;13.40;;;7.55;;
46084;SDS011;31823;47.032;8.310;2023-12-20T01:21:34;13.25;;;7.82;;
46084;SDS011;31823;47.032;8.310;2023-12-20T01:24:00;15.63;;;8.55;;
46084;SDS011;31823;47.032;8.310;2023-12-20T01:26:26;17.75;;;8.73;;
46084;SDS011;31823;47.032;8.310;2023-12-20T01:28:52;16.75;;;9.30;;
46084;SDS011;31823;47.032;8.310;2023-12-20T01:31:18;14.65;;;8.85;;
46084;SDS011;31823;47.032;8.310;2023-12-20T01:33:44;14.95;;;8.07;;
46084;SDS011;31823;47.032;8.310;2023-12-20T01:36:09;13.00;;;7.88;;
46084;SDS011;31823;47.032;8.310;2023-12-20T01:38:36;13.00;;;7.43;;
46084;SDS011;31823;47.032;8.310;2023-12-20T01:41:02;14.77;;;7.85;;
46084;SDS011;31823;47.032;8.310;2023-12-20T01:43:27;15.85;;;8.43;;
46084;SDS011;31823;47.032;8.310;2023-12-20T01:45:54;13.00;;;7.53;;
46084;SDS011;31823;47.032;8.310;2023-12-20T01:48:22;13.57;;;8.02;;
46084;SDS011;31823;47.032;8.310;2023-12-20T01:50:48;15.05;;;7.40;;
46084;SDS011;31823;47.032;8.310;2023-12-20T01:53:14;14.75;;;8.45;;
46084;SDS011;31823;47.032;8.310;2023-12-20T01:55:40;11.77;;;7.85;;
46084;SDS011;31823;47.032;8.310;2023-12-20T01:58:07;12.93;;;7.38;;
46084;SDS011;31823;47.032;8.310;2023-12-20T02:00:35;12.18;;;7.45;;
46084;SDS011;31823;47.032;8.310;2023-12-20T02:03:02;12.98;;;7.47;;
46084;SDS011;31823;47.032;8.310;2023-12-20T02:05:29;13.85;;;8.15;;
46084;SDS011;31823;47.032;8.310;2023-12-20T02:07:56;14.75;;;7.15;;
46084;SDS011;31823;47.032;8.310;2023-12-20T02:10:21;15.07;;;8.75;;
46084;SDS011;31823;47.032;8.310;2023-12-20T02:12:48;14.60;;;8.57;;
46084;SDS011;31823;47.032;8.310;2023-12-20T02:15:13;16.05;;;8.00;;
46084;SDS011;31823;47.032;8.310;2023-12-20T02:17:39;13.48;;;7.28;;
46084;SDS011;31823;47.032;8.310;2023-12-20T02:20:05;13.00;;;7.57;;
46084;SDS011;31823;47.032;8.310;2023-12-20T02:22:31;14.85;;;8.00;;
46084;SDS011;31823;47.032;8.310;2023-12-20T02:24:57;11.05;;;8.10;;
46084;SDS011;31823;47.032;8.310;2023-12-20T02:27:24;14.65;;;7.68;;
46084;SDS011;31823;47.032;8.310;2023-12-20T02:29:50;11.80;;;7.40;;
46084;SDS011;31823;47.032;8.310;2023-12-20T02:32:19;11.30;;;7.25;;
46084;SDS011;31823;47.032;8.310;2023-12-20T02:34:46;12.98;;;7.40;;
46084;SDS011;31823;47.032;8.310;2023-12-20T02:37:13;12.73;;;7.32;;
46084;SDS011;31823;47.032;8.310;2023-12-20T02:39:38;14.35;;;7.90;;
46084;SDS011;31823;47.032;8.310;2023-12-20T02:42:04;14.32;;;7.97;;
46084;SDS011;31823;47.032;8.310;2023-12-20T02:44:30;14.50;;;8.52;;
46084;SDS011;31823;47.032;8.310;2023-12-20T02:46:55;15.98;;;8.27;;
46084;SDS011;31823;47.032;8.310;2023-12-20T02:49:21;14.85;;;8.13;;
46084;SDS011;31823;47.032;8.310;2023-12-20T02:51:46;13.55;;;7.82;;
46084;SDS011;31823;47.032;8.310;2023-12-20T02:54:12;14.70;;;8.32;;
46084;SDS011;31823;47.032;8.310;2023-12-20T02:56:38;13.27;;;7.47;;
46084;SDS011;31823;47.032;8.310;2023-12-20T02:59:03;14.73;;;8.23;;
46084;SDS011;31823;47.032;8.310;2023-12-20T03:01:31;16.05;;;7.68;;
46084;SDS011;31823;47.032;8.310;2023-12-20T03:03:56;15.05;;;8.35;;
46084;SDS011;31823;47.032;8.310;2023-12-20T03:06:22;14.73;;;8.27;;
46084;SDS011;31823;47.032;8.310;2023-12-20T03:08:47;16.77;;;8.90;;
46084;SDS011;31823;47.032;8.310;2023-12-20T03:11:13;15.90;;;8.38;;
46084;SDS011;31823;47.032;8.310;2023-12-20T03:13:39;15.40;;;8.13;;
46084;SDS011;31823;47.032;8.310;2023-12-20T03:16:08;15.02;;;8.80;;
46084;SDS011;31823;47.032;8.310;2023-12-20T03:18:37;14.02;;;8.43;;
46084;SDS011;31823;47.032;8.310;2023-12-20T03:21:04;14.18;;;7.95;;
46084;SDS011;31823;47.032;8.310;2023-12-20T03:23:30;16.67;;;8.38;;
46084;SDS011;31823;47.032;8.310;2023-12-20T03:25:57;13.70;;;8.05;;
46084;SDS011;31823;47.032;8.310;2023-12-20T03:28:23;14.32;;;7.43;;
46084;SDS011;31823;47.032;8.310;2023-12-20T03:30:49;14.10;;;8.13;;
46084;SDS011;31823;47.032;8.310;2023-12-20T03:33:14;15.73;;;8.75;;
46084;SDS011;31823;47.032;8.310;2023-12-20T03:35:40;12.80;;;7.75;;
46084;SDS011;31823;47.032;8.310;2023-12-20T03:38:06;14.35;;;8.60;;
46084;SDS011;31823;47.032;8.310;2023-12-20T03:40:32;14.55;;;7.43;;
46084;SDS011;31823;47.032;8.310;2023-12-20T03:42:57;15.15;;;8.38;;
46084;SDS011;31823;47.032;8.310;2023-12-20T03:45:23;15.25;;;8.50;;
46084;SDS011;31823;47.032;8.310;2023-12-20T03:47:49;13.90;;;7.75;;
46084;SDS011;31823;47.032;8.310;2023-12-20T03:50:14;15.27;;;7.63;;
46084;SDS011;31823;47.032;8.310;2023-12-20T03:52:40;14.18;;;8.38;;
46084;SDS011;31823;47.032;8.310;2023-12-20T03:55:06;13.95;;;6.88;;
46084;SDS011;31823;47.032;8.310;2023-12-20T03:57:32;13.07;;;7.78;;
46084;SDS011;31823;47.032;8.310;2023-12-20T03:59:57;16.00;;;9.23;;
46084;SDS011;31823;47.032;8.310;2023-12-20T04:02:23;15.38;;;8.43;;
46084;SDS011;31823;47.032;8.310;2023-12-20T04:04:49;14.07;;;8.65;;
46084;SDS011;31823;47.032;8.310;2023-12-20T04:07:14;16.98;;;9.13;;
46084;SDS011;31823;47.032;8.310;2023-12-20T04:09:40;12.60;;;7.65;;
46084;SDS011;31823;47.032;8.310;2023-12-20T04:12:06;12.93;;;7.82;;
46084;SDS011;31823;47.032;8.310;2023-12-20T04:14:32;16.58;;;9.32;;
46084;SDS011;31823;47.032;8.310;2023-12-20T04:16:57;14.18;;;8.40;;
46084;SDS011;31823;47.032;8.310;2023-12-20T04:19:23;16.25;;;8.32;;
46084;SDS011;31823;47.032;8.310;2023-12-20T04:21:49;13.60;;;8.73;;
46084;SDS011;31823;47.032;8.310;2023-12-20T04:24:15;15.15;;;8.52;;
46084;SDS011;31823;47.032;8.310;2023-12-20T04:26:40;13.82;;;8.43;;
46084;SDS011;31823;47.032;8.310;2023-12-20T04:29:06;18.05;;;9.13;;
46084;SDS011;31823;47.032;8.310;2023-12-20T04:31:31;16.58;;;8.82;;
46084;SDS011;31823;47.032;8.310;2023-12-20T04:33:57;16.27;;;9.13;;
46084;SDS011;31823;47.032;8.310;2023-12-20T04:36:23;14.43;;;8.55;;
46084;SDS011;31823;47.032;8.310;2023-12-20T04:38:51;14.13;;;8.63;;
46084;SDS011;31823;47.032;8.310;2023-12-20T04:41:18;16.02;;;8.00;;
46084;SDS011;31823;47.032;8.310;2023-12-20T04:43:43;14.52;;;8.98;;
46084;SDS011;31823;47.032;8.310;2023-12-20T04:46:09;16.77;;;9.20;;
46084;SDS011;31823;47.032;8.310;2023-12-20T04:48:35;14.20;;;8.55;;
46084;SDS011;31823;47.032;8.310;2023-12-20T04:51:00;16.25;;;8.88;;
46084;SDS011;31823;47.032;8.310;2023-12-20T04:53:26;15.05;;;8.77;;
46084;SDS011;31823;47.032;8.310;2023-12-20T04:55:52;16.25;;;8.38;;
46084;SDS011;31823;47.032;8.310;2023-12-20T04:58:18;14.15;;;8.55;;
46084;SDS011;31823;47.032;8.310;2023-12-20T05:00:44;17.33;;;8.98;;
46084;SDS011;31823;47.032;8.310;2023-12-20T05:03:09;14.90;;;8.15;;
46084;SDS011;31823;47.032;8.310;2023-12-20T05:05:35;18.52;;;9.07;;
46084;SDS011;31823;47.032;8.310;2023-12-20T05:08:01;16.70;;;9.40;;
46084;SDS011;31823;47.032;8.310;2023-12-20T05:10:27;15.02;;;8.40;;
46084;SDS011;31823;47.032;8.310;2023-12-20T05:12:53;19.23;;;9.43;;
46084;SDS011;31823;47.032;8.310;2023-12-20T05:15:19;24.88;;;10.38;;
46084;SDS011;31823;47.032;8.310;2023-12-20T05:17:44;18.20;;;9.88;;
46084;SDS011;31823;47.032;8.310;2023-12-20T05:20:10;17.45;;;9.00;;
46084;SDS011;31823;47.032;8.310;2023-12-20T05:22:35;17.27;;;9.43;;
46084;SDS011;31823;47.032;8.310;2023-12-20T05:25:01;15.98;;;8.75;;
46084;SDS011;31823;47.032;8.310;2023-12-20T05:27:27;17.70;;;9.20;;
46084;SDS011;31823;47.032;8.310;2023-12-20T05:29:52;19.10;;;9.70;;
46084;SDS011;31823;47.032;8.310;2023-12-20T05:32:22;14.75;;;9.23;;
46084;SDS011;31823;47.032;8.310;2023-12-20T05:34:48;16.23;;;8.85;;
46084;SDS011;31823;47.032;8.310;2023-12-20T05:37:14;16.58;;;9.55;;
46084;SDS011;31823;47.032;8.310;2023-12-20T05:39:39;15.32;;;8.45;;
46084;SDS011;31823;47.032;8.310;2023-12-20T05:42:05;15.52;;;8.73;;
46084;SDS011;31823;47.032;8.310;2023-12-20T05:44:30;19.17;;;9.55;;
46084;SDS011;31823;47.032;8.310;2023-12-20T05:46:56;17.60;;;10.10;;
46084;SDS011;31823;47.032;8.310;2023-12-20T05:49:22;13.88;;;8.38;;
46084;SDS011;31823;47.032;8.310;2023-12-20T05:51:47;18.17;;;9.80;;
46084;SDS011;31823;47.032;8.310;2023-12-20T05:54:13;16.20;;;9.00;;
46084;SDS011;31823;47.032;8.310;2023-12-20T05:56:38;15.10;;;9.65;;
46084;SDS011;31823;47.032;8.310;2023-12-20T05:59:04;18.33;;;10.13;;
46084;SDS011;31823;47.032;8.310;2023-12-20T06:01:33;15.45;;;9.40;;
46084;SDS011;31823;47.032;8.310;2023-12-20T06:03:58;17.63;;;8.85;;
46084;SDS011;31823;47.032;8.310;2023-12-20T06:06:27;15.60;;;8.95;;
46084;SDS011;31823;47.032;8.310;2023-12-20T06:08:53;17.55;;;9.13;;
46084;SDS011;31823;47.032;8.310;2023-12-20T06:11:18;13.48;;;8.10;;
46084;SDS011;31823;47.032;8.310;2023-12-20T06:13:44;16.77;;;9.80;;
46084;SDS011;31823;47.032;8.310;2023-12-20T06:16:12;17.30;;;9.45;;
46084;SDS011;31823;47.032;8.310;2023-12-20T06:18:37;16.63;;;9.60;;
46084;SDS011;31823;47.032;8.310;2023-12-20T06:21:03;17.50;;;9.65;;
46084;SDS011;31823;47.032;8.310;2023-12-20T06:23:29;16.95;;;9.20;;
46084;SDS011;31823;47.032;8.310;2023-12-20T06:25:55;15.35;;;8.63;;
46084;SDS011;31823;47.032;8.310;2023-12-20T06:28:20;20.55;;;10.52;;
46084;SDS011;31823;47.032;8.310;2023-12-20T06:30:46;20.42;;;10.55;;
46084;SDS011;31823;47.032;8.310;2023-12-20T06:33:14;22.40;;;10.27;;
46084;SDS011;31823;47.032;8.310;2023-12-20T06:35:39;15.73;;;9.88;;
46084;SDS011;31823;47.032;8.310;2023-12-20T06:38:05;15.77;;;9.35;;
46084;SDS011;31823;47.032;8.310;2023-12-20T06:40:31;16.77;;;9.65;;
46084;SDS011;31823;47.032;8.310;2023-12-20T06:42:56;17.48;;;9.60;;
46084;SDS011;31823;47.032;8.310;2023-12-20T06:45:22;20.50;;;9.98;;
46084;SDS011;31823;47.032;8.310;2023-12-20T06:47:47;18.90;;;10.45;;
46084;SDS011;31823;47.032;8.310;2023-12-20T06:50:13;17.45;;;9.85;;
46084;SDS011;31823;47.032;8.310;2023-12-20T06:52:39;15.98;;;9.00;;
46084;SDS011;31823;47.032;8.310;2023-12-20T06:55:05;16.88;;;9.73;;
46084;SDS011;31823;47.032;8.310;2023-12-20T06:57:30;19.27;;;9.80;;
46084;SDS011;31823;47.032;8.310;2023-12-20T06:59:56;20.38;;;10.23;;
46084;SDS011;31823;47.032;8.310;2023-12-20T07:02:22;15.63;;;9.15;;
46084;SDS011;31823;47.032;8.310;2023-12-20T07:04:48;16.30;;;8.45;;
46084;SDS011;31823;47.032;8.310;2023-12-20T07:07:14;21.58;;;9.88;;
46084;SDS011;31823;47.032;8.310;2023-12-20T07:09:39;15.10;;;8.73;;
46084;SDS011;31823;47.032;8.310;2023-12-20T07:12:07;18.67;;;9.10;;
46084;SDS011;31823;47.032;8.310;2023-12-20T07:14:33;18.60;;;9.48;;
46084;SDS011;31823;47.032;8.310;2023-12-20T07:16:59;16.15;;;8.68;;
46084;SDS011;31823;47.032;8.310;2023-12-20T07:19:24;18.52;;;9.15;;
46084;SDS011;31823;47.032;8.310;2023-12-20T07:21:50;20.60;;;9.18;;
46084;SDS011;31823;47.032;8.310;2023-12-20T07:24:16;18.77;;;10.20;;
46084;SDS011;31823;47.032;8.310;2023-12-20T07:26:41;17.80;;;9.38;;
46084;SDS011;31823;47.032;8.310;2023-12-20T07:29:08;16.50;;;9.05;;
46084;SDS011;31823;47.032;8.310;2023-12-20T07:31:33;15.77;;;8.43;;
46084;SDS011;31823;47.032;8.310;2023-12-20T07:34:00;14.75;;;8.68;;
46084;SDS011;31823;47.032;8.310;2023-12-20T07:36:25;17.42;;;8.68;;
46084;SDS011;31823;47.032;8.310;2023-12-20T07:38:51;20.25;;;9.73;;
46084;SDS011;31823;47.032;8.310;2023-12-20T07:41:16;16.17;;;8.30;;
46084;SDS011;31823;47.032;8.310;2023-12-20T07:43:42;16.25;;;8.82;;
46084;SDS011;31823;47.032;8.310;2023-12-20T07:46:08;21.92;;;9.30;;
46084;SDS011;31823;47.032;8.310;2023-12-20T07:48:34;16.30;;;9.00;;
46084;SDS011;31823;47.032;8.310;2023-12-20T07:51:00;17.45;;;10.88;;
46084;SDS011;31823;47.032;8.310;2023-12-20T07:53:26;17.58;;;10.15;;
46084;SDS011;31823;47.032;8.310;2023-12-20T07:55:52;16.50;;;8.52;;
46084;SDS011;31823;47.032;8.310;2023-12-20T07:58:18;18.20;;;9.98;;
46084;SDS011;31823;47.032;8.310;2023-12-20T08:00:44;15.80;;;9.80;;
46084;SDS011;31823;47.032;8.310;2023-12-20T08:03:09;18.65;;;10.68;;
46084;SDS011;31823;47.032;8.310;2023-12-20T08:05:35;18.20;;;9.43;;
46084;SDS011;31823;47.032;8.310;2023-12-20T08:08:01;15.35;;;8.82;;
46084;SDS011;31823;47.032;8.310;2023-12-20T08:10:26;17.60;;;9.80;;
46084;SDS011;31823;47.032;8.310;2023-12-20T08:12:55;17.23;;;9.07;;
46084;SDS011;31823;47.032;8.310;2023-12-20T08:15:20;21.42;;;9.55;;
46084;SDS011;31823;47.032;8.310;2023-12-20T08:17:46;14.90;;;8.82;;
46084;SDS011;31823;47.032;8.310;2023-12-20T08:20:11;21.60;;;9.30;;
46084;SDS011;31823;47.032;8.310;2023-12-20T08:22:37;16.67;;;8.52;;
46084;SDS011;31823;47.032;8.310;2023-12-20T08:25:03;17.70;;;8.45;;
46084;SDS011;31823;47.032;8.310;2023-12-20T08:27:29;16.17;;;8.57;;
46084;SDS011;31823;47.032;8.310;2023-12-20T08:29:56;17.17;;;9.18;;
46084;SDS011;31823;47.032;8.310;2023-12-20T08:32:24;16.95;;;9.27;;
46084;SDS011;31823;47.032;8.310;2023-12-20T08:34:51;19.90;;;9.40;;
46084;SDS011;31823;47.032;8.310;2023-12-20T08:37:17;18.65;;;9.18;;
46084;SDS011;31823;47.032;8.310;2023-12-20T08:39:42;16.58;;;9.52;;
46084;SDS011;31823;47.032;8.310;2023-12-20T08:42:09;18.58;;;8.93;;
46084;SDS011;31823;47.032;8.310;2023-12-20T08:44:34;20.25;;;9.05;;
46084;SDS011;31823;47.032;8.310;2023-12-20T08:47:00;16.80;;;8.93;;
46084;SDS011;31823;47.032;8.310;2023-12-20T08:49:25;15.95;;;7.85;;
46084;SDS011;31823;47.032;8.310;2023-12-20T08:51:52;17.02;;;8.45;;
46084;SDS011;31823;47.032;8.310;2023-12-20T08:54:18;14.85;;;8.73;;
46084;SDS011;31823;47.032;8.310;2023-12-20T08:56:44;16.23;;;8.00;;
46084;SDS011;31823;47.032;8.310;2023-12-20T08:59:11;13.45;;;8.18;;
46084;SDS011;31823;47.032;8.310;2023-12-20T09:01:37;15.32;;;8.40;;
46084;SDS011;31823;47.032;8.310;2023-12-20T09:04:02;16.35;;;9.70;;
46084;SDS011;31823;47.032;8.310;2023-12-20T09:06:28;14.48;;;8.23;;
46084;SDS011;31823;47.032;8.310;2023-12-20T09:08:54;13.45;;;7.57;;
46084;SDS011;31823;47.032;8.310;2023-12-20T09:11:19;20.17;;;8.75;;
46084;SDS011;31823;47.032;8.310;2023-12-20T09:13:45;17.35;;;8.82;;
46084;SDS011;31823;47.032;8.310;2023-12-20T09:16:10;15.82;;;8.15;;
46084;SDS011;31823;47.032;8.310;2023-12-20T09:18:38;13.02;;;6.75;;
46084;SDS011;31823;47.032;8.310;2023-12-20T09:21:03;15.65;;;8.07;;
46084;SDS011;31823;47.032;8.310;2023-12-20T09:23:29;14.65;;;7.80;;
46084;SDS011;31823;47.032;8.310;2023-12-20T09:25:54;16.25;;;8.27;;
46084;SDS011;31823;47.032;8.310;2023-12-20T09:28:20;14.75;;;8.18;;
46084;SDS011;31823;47.032;8.310;2023-12-20T09:30:46;13.40;;;8.80;;
46084;SDS011;31823;47.032;8.310;2023-12-20T09:33:12;14.45;;;7.40;;
46084;SDS011;31823;47.032;8.310;2023-12-20T09:35:39;14.77;;;8.07;;
46084;SDS011;31823;47.032;8.310;2023-12-20T09:38:04;13.68;;;7.90;;
46084;SDS011;31823;47.032;8.310;2023-12-20T09:40:30;13.05;;;7.57;;
46084;SDS011;31823;47.032;8.310;2023-12-20T09:43:08;13.13;;;7.45;;
46084;SDS011;31823;47.032;8.310;2023-12-20T09:45:40;13.38;;;7.43;;
46084;SDS011;31823;47.032;8.310;2023-12-20T09:48:10;13.13;;;8.00;;
46084;SDS011;31823;47.032;8.310;2023-12-20T09:50:37;11.25;;;7.28;;
46084;SDS011;31823;47.032;8.310;2023-12-20T09:53:02;14.20;;;6.93;;
46084;SDS011;31823;47.032;8.310;2023-12-20T09:55:34;11.57;;;7.13;;
46084;SDS011;31823;47.032;8.310;2023-12-20T09:58:01;12.65;;;6.95;;
46084;SDS011;31823;47.032;8.310;2023-12-20T10:00:27;13.95;;;7.15;;
46084;SDS011;31823;47.032;8.310;2023-12-20T10:02:56;14.68;;;7.72;;
46084;SDS011;31823;47.032;8.310;2023-12-20T10:05:29;12.45;;;6.50;;
46084;SDS011;31823;47.032;8.310;2023-12-20T10:07:56;12.73;;;7.72;;
46084;SDS011;31823;47.032;8.310;2023-12-20T10:10:22;12.70;;;7.53;;
46084;SDS011;31823;47.032;8.310;2023-12-20T10:13:04;14.98;;;7.53;;
46084;SDS011;31823;47.032;8.310;2023-12-20T10:15:32;11.93;;;7.50;;
46084;SDS011;31823;47.032;8.310;2023-12-20T10:17:58;13.68;;;8.25;;
46084;SDS011;31823;47.032;8.310;2023-12-20T10:20:24;13.60;;;7.57;;
46084;SDS011;31823;47.032;8.310;2023-12-20T10:22:50;15.23;;;7.82;;
46084;SDS011;31823;47.032;8.310;2023-12-20T10:25:18;11.80;;;6.45;;
46084;SDS011;31823;47.032;8.310;2023-12-20T10:27:45;11.95;;;6.38;;
46084;SDS011;31823;47.032;8.310;2023-12-20T10:30:11;12.63;;;6.53;;
46084;SDS011;31823;47.032;8.310;2023-12-20T10:32:37;13.60;;;7.93;;
46084;SDS011;31823;47.032;8.310;2023-12-20T10:35:02;14.13;;;6.55;;
46084;SDS011;31823;47.032;8.310;2023-12-20T10:37:29;19.45;;;10.40;;
46084;SDS011;31823;47.032;8.310;2023-12-20T10:39:54;13.45;;;7.47;;
46084;SDS011;31823;47.032;8.310;2023-12-20T10:42:26;16.77;;;8.77;;
46084;SDS011;31823;47.032;8.310;2023-12-20T10:44:52;14.63;;;8.00;;
46084;SDS011;31823;47.032;8.310;2023-12-20T10:47:19;14.82;;;8.25;;
46084;SDS011;31823;47.032;8.310;2023-12-20T10:49:45;12.82;;;7.93;;
46084;SDS011;31823;47.032;8.310;2023-12-20T10:52:12;15.18;;;7.72;;
46084;SDS011;31823;47.032;8.310;2023-12-20T10:54:41;13.05;;;7.93;;
46084;SDS011;31823;47.032;8.310;2023-12-20T10:57:06;15.88;;;8.15;;
46084;SDS011;31823;47.032;8.310;2023-12-20T10:59:38;12.05;;;7.20;;
46084;SDS011;31823;47.032;8.310;2023-12-20T11:02:05;10.88;;;7.15;;
46084;SDS011;31823;47.032;8.310;2023-12-20T11:04:34;14.20;;;6.97;;
46084;SDS011;31823;47.032;8.310;2023-12-20T11:10:14;9.82;;;5.93;;
46084;SDS011;31823;47.032;8.310;2023-12-20T11:12:49;9.80;;;6.03;;
46084;SDS011;31823;47.032;8.310;2023-12-20T11:15:19;10.75;;;5.90;;
46084;SDS011;31823;47.032;8.310;2023-12-20T11:17:46;8.00;;;5.00;;
46084;SDS011;31823;47.032;8.310;2023-12-20T11:20:19;6.88;;;4.45;;
46084;SDS011;31823;47.032;8.310;2023-12-20T11:22:52;6.60;;;4.45;;
46084;SDS011;31823;47.032;8.310;2023-12-20T11:25:22;7.55;;;4.13;;
46084;SDS011;31823;47.032;8.310;2023-12-20T11:28:11;5.53;;;3.83;;
46084;SDS011;31823;47.032;8.310;2023-12-20T11:30:56;5.95;;;4.10;;
46084;SDS011;31823;47.032;8.310;2023-12-20T11:33:37;5.78;;;4.32;;
46084;SDS011;31823;47.032;8.310;2023-12-20T11:36:07;6.97;;;4.45;;
46084;SDS011;31823;47.032;8.310;2023-12-20T11:38:38;4.77;;;3.67;;
46084;SDS011;31823;47.032;8.310;2023-12-20T11:41:25;11.50;;;4.15;;
46084;SDS011;31823;47.032;8.310;2023-12-20T11:43:54;5.03;;;3.45;;
46084;SDS011;31823;47.032;8.310;2023-12-20T11:46:21;6.85;;;3.92;;
46084;SDS011;31823;47.032;8.310;2023-12-20T11:48:47;5.60;;;3.78;;
46084;SDS011;31823;47.032;8.310;2023-12-20T11:51:13;4.43;;;3.58;;
46084;SDS011;31823;47.032;8.310;2023-12-20T11:53:39;5.57;;;3.80;;
46084;SDS011;31823;47.032;8.310;2023-12-20T11:56:07;7.07;;;2.97;;
46084;SDS011;31823;47.032;8.310;2023-12-20T11:58:33;4.20;;;3.20;;
46084;SDS011;31823;47.032;8.310;2023-12-20T12:01:00;4.03;;;3.28;;
46084;SDS011;31823;47.032;8.310;2023-12-20T12:03:27;5.90;;;3.35;;
46084;SDS011;31823;47.032;8.310;2023-12-20T12:05:53;4.35;;;3.40;;
46084;SDS011;31823;47.032;8.310;2023-12-20T12:08:18;5.93;;;3.63;;
46084;SDS011;31823;47.032;8.310;2023-12-20T12:10:44;6.70;;;4.55;;
46084;SDS011;31823;47.032;8.310;2023-12-20T12:13:13;6.70;;;4.35;;
46084;SDS011;31823;47.032;8.310;2023-12-20T12:15:39;5.20;;;4.03;;
46084;SDS011;31823;47.032;8.310;2023-12-20T12:18:07;7.47;;;4.25;;
46084;SDS011;31823;47.032;8.310;2023-12-20T12:20:32;7.15;;;3.83;;
46084;SDS011;31823;47.032;8.310;2023-12-20T12:22:59;4.43;;;3.47;;
46084;SDS011;31823;47.032;8.310;2023-12-20T12:25:29;6.38;;;4.20;;
46084;SDS011;31823;47.032;8.310;2023-12-20T12:27:56;5.07;;;3.15;;
46084;SDS011;31823;47.032;8.310;2023-12-20T12:30:25;5.22;;;3.70;;
46084;SDS011;31823;47.032;8.310;2023-12-20T12:32:52;5.45;;;3.50;;
46084;SDS011;31823;47.032;8.310;2023-12-20T12:35:18;4.93;;;4.03;;
46084;SDS011;31823;47.032;8.310;2023-12-20T12:37:45;5.60;;;3.25;;
46084;SDS011;31823;47.032;8.310;2023-12-20T12:40:15;7.10;;;4.10;;
46084;SDS011;31823;47.032;8.310;2023-12-20T12:42:42;6.28;;;3.75;;
46084;SDS011;31823;47.032;8.310;2023-12-20T12:45:08;6.63;;;4.50;;
46084;SDS011;31823;47.032;8.310;2023-12-20T12:47:35;5.32;;;3.60;;
46084;SDS011;31823;47.032;8.310;2023-12-20T12:50:01;5.53;;;3.78;;
46084;SDS011;31823;47.032;8.310;2023-12-20T12:52:27;6.15;;;3.65;;
46084;SDS011;31823;47.032;8.310;2023-12-20T12:54:53;4.80;;;4.07;;
46084;SDS011;31823;47.032;8.310;2023-12-20T12:57:18;5.78;;;4.22;;
46084;SDS011;31823;47.032;8.310;2023-12-20T12:59:45;6.10;;;4.10;;
46084;SDS011;31823;47.032;8.310;2023-12-20T13:02:12;6.95;;;3.63;;
46084;SDS011;31823;47.032;8.310;2023-12-20T13:04:38;5.95;;;4.35;;
46084;SDS011;31823;47.032;8.310;2023-12-20T13:07:04;5.93;;;4.05;;
46084;SDS011;31823;47.032;8.310;2023-12-20T13:09:30;6.70;;;3.80;;
46084;SDS011;31823;47.032;8.310;2023-12-20T13:11:56;7.65;;;3.55;;
46084;SDS011;31823;47.032;8.310;2023-12-20T13:14:22;5.00;;;3.70;;
46084;SDS011;31823;47.032;8.310;2023-12-20T13:16:48;5.75;;;3.92;;
46084;SDS011;31823;47.032;8.310;2023-12-20T13:19:13;4.25;;;2.92;;
46084;SDS011;31823;47.032;8.310;2023-12-20T13:21:39;4.80;;;2.80;;
46084;SDS011;31823;47.032;8.310;2023-12-20T13:24:05;4.40;;;2.67;;
46084;SDS011;31823;47.032;8.310;2023-12-20T13:26:31;3.20;;;2.38;;
46084;SDS011;31823;47.032;8.310;2023-12-20T13:28:57;3.55;;;2.75;;
46084;SDS011;31823;47.032;8.310;2023-12-20T13:31:23;3.25;;;2.50;;
46084;SDS011;31823;47.032;8.310;2023-12-20T13:33:49;3.83;;;3.13;;
46084;SDS011;31823;47.032;8.310;2023-12-20T13:36:14;4.45;;;3.75;;
46084;SDS011;31823;47.032;8.310;2023-12-20T13:38:40;5.93;;;3.17;;
46084;SDS011;31823;47.032;8.310;2023-12-20T13:41:06;3.75;;;2.70;;
46084;SDS011;31823;47.032;8.310;2023-12-20T13:43:31;3.70;;;2.15;;
46084;SDS011;31823;47.032;8.310;2023-12-20T13:45:58;3.85;;;2.60;;
46084;SDS011;31823;47.032;8.310;2023-12-20T13:48:24;3.10;;;2.70;;
46084;SDS011;31823;47.032;8.310;2023-12-20T13:50:49;3.15;;;2.33;;
46084;SDS011;31823;47.032;8.310;2023-12-20T13:53:15;3.95;;;2.33;;
46084;SDS011;31823;47.032;8.310;2023-12-20T13:55:41;2.80;;;2.35;;
46084;SDS011;31823;47.032;8.310;2023-12-20T13:58:06;3.30;;;2.17;;
46084;SDS011;31823;47.032;8.310;2023-12-20T14:00:32;2.35;;;2.15;;
46084;SDS011;31823;47.032;8.310;2023-12-20T14:02:58;2.63;;;2.03;;
46084;SDS011;31823;47.032;8.310;2023-12-20T14:05:23;2.95;;;2.30;;
46084;SDS011;31823;47.032;8.310;2023-12-20T14:07:49;3.47;;;2.42;;
46084;SDS011;31823;47.032;8.310;2023-12-20T14:10:15;2.13;;;1.92;;
46084;SDS011;31823;47.032;8.310;2023-12-20T14:12:41;2.35;;;1.90;;
46084;SDS011;31823;47.032;8.310;2023-12-20T14:15:07;2.90;;;2.03;;
46084;SDS011;31823;47.032;8.310;2023-12-20T14:17:36;2.03;;;1.85;;
46084;SDS011;31823;47.032;8.310;2023-12-20T14:20:02;2.72;;;1.75;;
46084;SDS011;31823;47.032;8.310;2023-12-20T14:22:30;2.67;;;1.98;;
46084;SDS011;31823;47.032;8.310;2023-12-20T14:24:55;2.42;;;2.00;;
46084;SDS011;31823;47.032;8.310;2023-12-20T14:27:22;4.05;;;1.65;;
46084;SDS011;31823;47.032;8.310;2023-12-20T14:29:49;2.40;;;1.55;;
46084;SDS011;31823;47.032;8.310;2023-12-20T14:32:15;2.58;;;2.08;;
46084;SDS011;31823;47.032;8.310;2023-12-20T14:34:41;2.75;;;2.25;;
46084;SDS011;31823;47.032;8.310;2023-12-20T14:37:07;5.30;;;2.42;;